Shinseimaru — JI3713 — position and weather

sailwx.info

Track history (hours):
 
Tides and Currents Weather Stations Pressure Air Temp Water Temp Dewpoint Dewpoint Depression Visibility Wind Speed Wind Dir Waves Ship Positions

Shinseimaru

Last reported at 2018-Feb-20 13:06 UTC. Time now 2018-Feb-20 13:42 UTC.
Position N 34°27' E 134°29'.

Length 84 m.

Type: Ship. MMSI: 431301705.

Date/timePositionNaut miles runAvg speedWind from/ knotsBaromVisibWave heightAir tempDewpointWater temp
2018-Feb-20 13:06N 34°27' E 134°29'112.8
2018-Feb-20 13:00N 34°28' E 134°31'612.6
2018-Feb-20 12:30N 34°30' E 134°38'612.7
2018-Feb-20 12:00N 34°33' E 134°45'712.7
2018-Feb-20 11:28N 34°35' E 134°52'612.5
2018-Feb-20 11:00N 34°38' E 134°59'510.9
2018-Feb-20 10:30N 34°36' E 135°05'612.4
2018-Feb-20 10:01N 34°36' E 135°13'611.9
2018-Feb-20 09:31N 34°36' E 135°20'610.9
2018-Feb-20 09:00N 34°35' E 135°26'1 2.1
2018-Feb-20 08:26N 34°34' E 135°27'0 0.0
2018-Feb-20 07:59N 34°34' E 135°27'0 0.0
2018-Feb-20 07:29N 34°34' E 135°27'0 0.0
2018-Feb-20 06:59N 34°34' E 135°27'0 0.0
2018-Feb-20 06:29N 34°34' E 135°27'0 0.0
2018-Feb-20 05:59N 34°34' E 135°27'0 0.0
2018-Feb-20 05:29N 34°34' E 135°27'0 0.0
2018-Feb-20 04:59N 34°34' E 135°27'0 0.0
2018-Feb-20 04:29N 34°34' E 135°27'0 0.0
2018-Feb-20 03:59N 34°34' E 135°27'0 0.0
2018-Feb-20 03:29N 34°34' E 135°27'0 0.0
2018-Feb-20 02:59N 34°34' E 135°27'0 0.0
2018-Feb-20 02:29N 34°34' E 135°27'0 0.0
2018-Feb-20 01:59N 34°34' E 135°27'0 0.0
2018-Feb-20 01:29N 34°34' E 135°27'0 0.0
2018-Feb-20 00:59N 34°34' E 135°27'0 0.0
2018-Feb-20 00:29N 34°34' E 135°27'0 0.0
2018-Feb-19 23:59N 34°34' E 135°27'0 0.0
2018-Feb-19 23:29N 34°34' E 135°27'0 0.0
2018-Feb-19 22:59N 34°34' E 135°27'1 1.3
2018-Feb-19 22:28N 34°35' E 135°27'0 0.6
2018-Feb-19 22:00N 34°35' E 135°27'5 9.2
2018-Feb-19 21:30N 34°36' E 135°21'611.3
2018-Feb-19 21:00N 34°35' E 135°15'612.1
2018-Feb-19 20:30N 34°35' E 135°07'714.4
2018-Feb-19 20:00N 34°37' E 134°59'714.6
2018-Feb-19 19:30N 34°33' E 134°51'712.9
2018-Feb-19 18:59N 34°31' E 134°44'612.4
2018-Feb-19 18:30N 34°29' E 134°37'9911.1
2018-Feb-19 09:38N 34°05' E 132°41'211.3
2018-Feb-19 09:29N 34°04' E 132°39'9 5.8
2018-Feb-19 08:01N 34°08' E 132°30'112.1
2018-Feb-19 07:57N 34°09' E 132°30'4 8.2
2018-Feb-19 07:29N 34°13' E 132°31'1 2.8
2018-Feb-19 06:58N 34°14' E 132°32'0 0.0
2018-Feb-19 06:25N 34°14' E 132°32'0 0.0
2018-Feb-19 05:58N 34°14' E 132°32'0 0.0
2018-Feb-19 05:29N 34°14' E 132°32'0 0.0
2018-Feb-19 04:58N 34°14' E 132°32'0 0.0
2018-Feb-19 04:29N 34°14' E 132°32'0 0.0
2018-Feb-19 03:58N 34°14' E 132°32'0 0.0
2018-Feb-19 03:22N 34°14' E 132°32'0 0.0
2018-Feb-19 02:58N 34°14' E 132°32'0 0.0
2018-Feb-19 02:26N 34°14' E 132°32'0 0.0
2018-Feb-19 01:59N 34°14' E 132°32'0 0.0
2018-Feb-19 01:22N 34°14' E 132°32'0 0.0
2018-Feb-19 00:58N 34°14' E 132°32'0 0.0
2018-Feb-19 00:28N 34°14' E 132°32'0 0.0
2018-Feb-18 23:58N 34°14' E 132°32'0 0.0
2018-Feb-18 23:28N 34°14' E 132°32'3 6.7
2018-Feb-18 23:00N 34°11' E 132°30'9910.5
2018-Feb-18 13:35N 34°27' E 134°28'112.4
2018-Feb-18 13:28N 34°28' E 134°29'612.9
2018-Feb-18 13:00N 34°30' E 134°36'613.1
2018-Feb-18 12:30N 34°33' E 134°43'713.8
2018-Feb-18 12:00N 34°35' E 134°51'714.2
2018-Feb-18 11:30N 34°38' E 134°59'612.9
2018-Feb-18 11:01N 34°36' E 135°07'612.2
2018-Feb-18 10:30N 34°36' E 135°14'612.1
2018-Feb-18 10:00N 34°36' E 135°22'5 9.6
2018-Feb-18 09:30N 34°34' E 135°27'0 0.7
2018-Feb-18 09:00N 34°34' E 135°27'0 0.0
2018-Feb-18 08:30N 34°34' E 135°27'0 0.0
2018-Feb-18 08:00N 34°34' E 135°27'0 0.0
2018-Feb-18 07:30N 34°34' E 135°27'0 0.0
2018-Feb-18 07:00N 34°34' E 135°27'0 0.0
2018-Feb-18 06:30N 34°34' E 135°27'0 0.0
2018-Feb-18 06:00N 34°34' E 135°27'0 0.0
2018-Feb-18 05:30N 34°34' E 135°27'0 0.0
2018-Feb-18 05:00N 34°34' E 135°27'0 0.0
2018-Feb-18 04:30N 34°34' E 135°27'0 0.0
2018-Feb-18 03:57N 34°34' E 135°27'0 0.0
2018-Feb-18 03:30N 34°34' E 135°27'2 4.7
2018-Feb-18 03:00N 34°36' E 135°25'510.5
2018-Feb-18 02:30N 34°36' E 135°19'510.9
2018-Feb-18 02:00N 34°35' E 135°12'510.9
2018-Feb-18 01:30N 34°35' E 135°05'4 8.0
2018-Feb-18 01:00N 34°37' E 135°01'4 7.9
2018-Feb-18 00:29N 34°36' E 134°56'4 7.8
2018-Feb-17 23:59N 34°34' E 134°52'4 9.0
2018-Feb-17 23:30N 34°32' E 134°47'510.1
2018-Feb-17 23:00N 34°30' E 134°42'510.5
2018-Feb-17 22:30N 34°29' E 134°35'9810.9
2018-Feb-17 13:33N 34°05' E 132°40'111.6
2018-Feb-17 13:30N 34°05' E 132°40'9 5.6
2018-Feb-17 11:55N 34°08' E 132°30'410.5
2018-Feb-17 11:30N 34°13' E 132°31'2 3.0
2018-Feb-17 10:59N 34°14' E 132°32'0 0.0
2018-Feb-17 10:26N 34°14' E 132°32'0 0.0
2018-Feb-17 09:59N 34°14' E 132°32'0 0.0
2018-Feb-17 09:29N 34°14' E 132°32'0 0.0
2018-Feb-17 08:59N 34°14' E 132°32'0 0.0
2018-Feb-17 08:29N 34°14' E 132°32'0 0.0
2018-Feb-17 07:59N 34°14' E 132°32'0 0.0
2018-Feb-17 07:29N 34°14' E 132°32'0 0.0
2018-Feb-17 06:59N 34°14' E 132°32'0 0.0
2018-Feb-17 06:29N 34°14' E 132°32'0 0.0
2018-Feb-17 05:59N 34°14' E 132°32'0 0.0
2018-Feb-17 05:29N 34°14' E 132°32'0 0.0
2018-Feb-17 04:56N 34°14' E 132°32'0 0.0
2018-Feb-17 04:29N 34°14' E 132°32'0 0.0
2018-Feb-17 03:59N 34°14' E 132°32'0 0.0
2018-Feb-17 03:26N 34°14' E 132°32'0 0.0
2018-Feb-17 02:59N 34°14' E 132°32'0 0.0
2018-Feb-17 02:29N 34°14' E 132°32'0 0.0
2018-Feb-17 01:59N 34°14' E 132°32'0 0.0
2018-Feb-17 01:29N 34°14' E 132°32'0 0.0
2018-Feb-17 00:56N 34°14' E 132°32'0 0.0
2018-Feb-17 00:26N 34°14' E 132°32'2 4.5
2018-Feb-17 00:00N 34°12' E 132°31'10 6.0
2018-Feb-16 22:25N 34°04' E 132°36'9510.9
2018-Feb-16 13:40N 34°27' E 134°27'212.0
2018-Feb-16 13:29N 34°28' E 134°30'612.4
2018-Feb-16 13:00N 34°30' E 134°37'612.6
2018-Feb-16 12:30N 34°33' E 134°44'713.7
2018-Feb-16 12:00N 34°35' E 134°51'714.5
2018-Feb-16 11:30N 34°38' E 134°60'713.6
2018-Feb-16 11:00N 34°36' E 135°08'612.6
2018-Feb-16 10:30N 34°36' E 135°15'612.1
2018-Feb-16 10:00N 34°36' E 135°23'4 8.1
2018-Feb-16 09:30N 34°34' E 135°27'0 0.0
2018-Feb-16 09:00N 34°34' E 135°27'0 0.0
2018-Feb-16 08:30N 34°34' E 135°27'0 0.0
2018-Feb-16 08:00N 34°34' E 135°27'0 0.0
2018-Feb-16 07:30N 34°34' E 135°27'0 0.0
2018-Feb-16 07:00N 34°34' E 135°27'0 0.0
2018-Feb-16 06:30N 34°34' E 135°27'0 0.0
2018-Feb-16 06:00N 34°34' E 135°27'0 0.0
2018-Feb-16 05:30N 34°34' E 135°27'0 0.0
2018-Feb-16 04:54N 34°34' E 135°27'0 0.0
2018-Feb-16 04:30N 34°34' E 135°27'0 0.0
2018-Feb-16 04:00N 34°34' E 135°27'0 0.0
2018-Feb-16 03:30N 34°34' E 135°27'0 0.0
2018-Feb-16 03:00N 34°34' E 135°27'0 0.0
2018-Feb-16 02:30N 34°34' E 135°27'0 0.0
2018-Feb-16 02:00N 34°34' E 135°27'1 2.5
2018-Feb-16 01:30N 34°35' E 135°26'2 5.0
2018-Feb-16 01:00N 34°35' E 135°23'0 0.1
2018-Feb-16 00:28N 34°35' E 135°23'0 0.1
2018-Feb-15 23:58N 34°35' E 135°23'0 0.0
2018-Feb-15 23:28N 34°35' E 135°23'0 0.0
2018-Feb-15 22:58N 34°35' E 135°23'0 0.1
2018-Feb-15 22:28N 34°35' E 135°23'0 0.0
2018-Feb-15 21:58N 34°35' E 135°23'0 0.0
2018-Feb-15 21:27N 34°35' E 135°23'3 5.9
2018-Feb-15 21:00N 34°35' E 135°20'611.6
2018-Feb-15 20:30N 34°35' E 135°13'612.4
2018-Feb-15 20:00N 34°35' E 135°06'612.9
2018-Feb-15 19:30N 34°37' E 134°58'713.7
2018-Feb-15 19:00N 34°33' E 134°51'612.7
2018-Feb-15 18:30N 34°31' E 134°43'612.2
2018-Feb-15 18:00N 34°29' E 134°37'9811.9
2018-Feb-15 09:44N 34°06' E 132°41'312.4
2018-Feb-15 09:28N 34°04' E 132°37'8 5.6
2018-Feb-15 08:06N 34°08' E 132°30'1 9.9
2018-Feb-15 08:00N 34°10' E 132°29'5 9.6
2018-Feb-15 07:30N 34°14' E 132°32'0 0.7
2018-Feb-15 07:00N 34°14' E 132°32'0 0.0
2018-Feb-15 06:24N 34°14' E 132°32'0 0.0
2018-Feb-15 06:00N 34°14' E 132°32'0 0.0
2018-Feb-15 05:30N 34°14' E 132°32'0 0.0
2018-Feb-15 04:57N 34°14' E 132°32'0 0.0
2018-Feb-15 04:30N 34°14' E 132°32'0 0.0
2018-Feb-15 04:00N 34°14' E 132°32'0 0.0
2018-Feb-15 03:30N 34°14' E 132°32'0 0.0
2018-Feb-15 03:00N 34°14' E 132°32'0 0.0
2018-Feb-15 02:30N 34°14' E 132°32'0 0.0
2018-Feb-15 01:57N 34°14' E 132°32'0 0.0
2018-Feb-15 01:30N 34°14' E 132°32'0 0.0
2018-Feb-15 01:00N 34°14' E 132°32'0 0.0
2018-Feb-15 00:27N 34°14' E 132°32'0 0.0
2018-Feb-15 00:00N 34°14' E 132°32'0 0.0
2018-Feb-14 23:30N 34°14' E 132°32'0 0.0
2018-Feb-14 23:00N 34°14' E 132°32'0 0.0
2018-Feb-14 22:30N 34°14' E 132°32'0 0.0
2018-Feb-14 22:00N 34°14' E 132°32'0 0.0
2018-Feb-14 21:30N 34°14' E 132°32'0 0.6
2018-Feb-14 21:00N 34°14' E 132°32'611.0
2018-Feb-14 20:30N 34°09' E 132°30'7 6.5
2018-Feb-14 19:23N 34°03' E 132°35'9611.7
2018-Feb-14 11:11N 34°27' E 134°28'212.6
2018-Feb-14 11:00N 34°28' E 134°30'612.6
2018-Feb-14 10:30N 34°31' E 134°37'612.6
2018-Feb-14 10:00N 34°33' E 134°44'713.0
2018-Feb-14 09:30N 34°35' E 134°52'613.0
2018-Feb-14 09:00N 34°38' E 134°59'612.5
2018-Feb-14 08:30N 34°36' E 135°06'612.1
2018-Feb-14 08:00N 34°37' E 135°14'611.7
2018-Feb-14 07:30N 34°37' E 135°21'510.5
2018-Feb-14 07:00N 34°35' E 135°27'1 1.5
2018-Feb-14 06:30N 34°34' E 135°27'0 0.0
2018-Feb-14 06:00N 34°34' E 135°27'0 0.0
2018-Feb-14 05:30N 34°34' E 135°27'0 0.0
2018-Feb-14 04:57N 34°34' E 135°27'0 0.0
2018-Feb-14 04:30N 34°34' E 135°27'0 0.0
2018-Feb-14 04:00N 34°34' E 135°27'0 0.0
2018-Feb-14 03:30N 34°34' E 135°27'0 0.0
2018-Feb-14 03:00N 34°34' E 135°27'0 0.0
2018-Feb-14 02:30N 34°34' E 135°27'1 1.6
2018-Feb-14 02:00N 34°35' E 135°27'5 9.8
2018-Feb-14 01:30N 34°36' E 135°21'611.7
2018-Feb-14 01:00N 34°36' E 135°14'611.7
2018-Feb-14 00:30N 34°35' E 135°07'5 9.6
2018-Feb-14 00:00N 34°37' E 135°01'5 9.8
2018-Feb-13 23:29N 34°35' E 134°55'4 9.2
2018-Feb-13 23:00N 34°34' E 134°50'510.3
2018-Feb-13 22:30N 34°31' E 134°45'611.1
2018-Feb-13 21:59N 34°29' E 134°38'10011.1
2018-Feb-13 12:58N 34°05' E 132°41'1210.7
2018-Feb-13 11:52N 34°05' E 132°27'410.2
2018-Feb-13 11:26N 34°09' E 132°30'510.9
2018-Feb-13 11:00N 34°13' E 132°31'1 2.0
2018-Feb-13 10:28N 34°14' E 132°32'0 0.0
2018-Feb-13 09:58N 34°14' E 132°32'0 0.0
2018-Feb-13 09:28N 34°14' E 132°32'0 0.0
2018-Feb-13 08:58N 34°14' E 132°32'0 0.0
2018-Feb-13 08:28N 34°14' E 132°32'0 0.0
2018-Feb-13 07:58N 34°14' E 132°32'0 0.0
2018-Feb-13 07:28N 34°14' E 132°32'0 0.0
2018-Feb-13 06:58N 34°14' E 132°32'0 0.0
2018-Feb-13 06:28N 34°14' E 132°32'0 0.0
2018-Feb-13 05:58N 34°14' E 132°32'0 0.0
2018-Feb-13 05:19N 34°14' E 132°32'0 0.0
2018-Feb-13 04:58N 34°14' E 132°32'0 0.0
2018-Feb-13 04:28N 34°14' E 132°32'0 0.0
2018-Feb-13 03:58N 34°14' E 132°32'0 0.0
2018-Feb-13 03:28N 34°14' E 132°32'0 0.2
2018-Feb-13 03:00N 34°14' E 132°32'5 9.6
2018-Feb-13 02:27N 34°09' E 132°30'100 9.7
2018-Feb-12 16:10N 34°27' E 134°29'212.1
2018-Feb-12 16:00N 34°28' E 134°31'911.9
2018-Feb-12 15:16N 34°31' E 134°41'311.6
2018-Feb-12 15:00N 34°33' E 134°44'611.2
2018-Feb-12 14:30N 34°35' E 134°51'510.5
2018-Feb-12 14:00N 34°37' E 134°56'5 9.8
2018-Feb-12 13:30N 34°37' E 135°02'511.0
2018-Feb-12 13:00N 34°36' E 135°09'612.0
2018-Feb-12 12:28N 34°36' E 135°17'612.1
2018-Feb-12 12:00N 34°36' E 135°24'4 6.9
2018-Feb-12 11:29N 34°34' E 135°27'0 0.0
2018-Feb-12 10:59N 34°34' E 135°27'0 0.0
2018-Feb-12 10:29N 34°34' E 135°27'0 0.0
2018-Feb-12 09:59N 34°34' E 135°27'0 0.0
2018-Feb-12 09:26N 34°34' E 135°27'0 0.0
2018-Feb-12 08:59N 34°34' E 135°27'0 0.0
2018-Feb-12 08:29N 34°34' E 135°27'0 0.0
2018-Feb-12 07:59N 34°34' E 135°27'0 0.0
2018-Feb-12 07:29N 34°34' E 135°27'0 0.0
2018-Feb-12 06:59N 34°34' E 135°27'0 0.0
2018-Feb-12 06:29N 34°34' E 135°27'0 0.0
2018-Feb-12 05:59N 34°34' E 135°27'0 0.0
2018-Feb-12 05:29N 34°34' E 135°27'0 0.1
2018-Feb-12 04:57N 34°34' E 135°27'2 3.4
2018-Feb-12 04:30N 34°35' E 135°26'3 4.7
2018-Feb-12 03:58N 34°36' E 135°23'0 0.0
2018-Feb-12 03:28N 34°36' E 135°23'0 0.0
2018-Feb-12 02:58N 34°36' E 135°23'0 0.0
2018-Feb-12 02:28N 34°36' E 135°23'0 0.0
2018-Feb-12 01:58N 34°36' E 135°23'0 0.0
2018-Feb-12 01:28N 34°36' E 135°23'0 0.0
2018-Feb-12 00:58N 34°36' E 135°23'0 0.0
2018-Feb-12 00:28N 34°36' E 135°23'0 0.0
2018-Feb-11 23:58N 34°36' E 135°23'0 0.0
2018-Feb-11 23:28N 34°36' E 135°23'0 0.0
2018-Feb-11 22:58N 34°36' E 135°23'0 0.0
2018-Feb-11 22:28N 34°36' E 135°23'2 3.4
2018-Feb-11 22:00N 34°36' E 135°21'611.5
2018-Feb-11 21:30N 34°35' E 135°14'611.5
2018-Feb-11 21:00N 34°35' E 135°07'5 9.3
2018-Feb-11 20:30N 34°36' E 135°02'4 8.0
2018-Feb-11 20:00N 34°36' E 134°57'510.1
2018-Feb-11 19:30N 34°34' E 134°51'510.9
2018-Feb-11 19:00N 34°32' E 134°45'611.3
2018-Feb-11 18:30N 34°30' E 134°39'611.5
2018-Feb-11 18:00N 34°28' E 134°32'9411.3
2018-Feb-11 09:40N 34°06' E 132°41'212.0
2018-Feb-11 09:31N 34°05' E 132°39'8 5.5
2018-Feb-11 07:58N 34°09' E 132°30'510.0
2018-Feb-11 07:30N 34°13' E 132°31'1 2.0
2018-Feb-11 06:57N 34°14' E 132°32'0 0.0
2018-Feb-11 06:30N 34°14' E 132°32'0 0.0
2018-Feb-11 05:54N 34°14' E 132°32'0 0.0
2018-Feb-11 05:30N 34°14' E 132°32'0 0.0
2018-Feb-11 04:57N 34°14' E 132°32'0 0.0
2018-Feb-11 04:30N 34°14' E 132°32'0 0.0
2018-Feb-11 03:54N 34°14' E 132°32'0 0.0
2018-Feb-11 02:57N 34°14' E 132°32'0 0.0
2018-Feb-11 02:27N 34°14' E 132°32'0 0.0
2018-Feb-11 02:00N 34°14' E 132°32'0 0.0
2018-Feb-11 01:30N 34°14' E 132°32'0 0.0
2018-Feb-11 00:57N 34°14' E 132°32'0 0.0
2018-Feb-11 00:30N 34°14' E 132°32'0 0.0
2018-Feb-10 23:57N 34°14' E 132°32'0 0.0
2018-Feb-10 23:30N 34°14' E 132°32'0 0.0
2018-Feb-10 23:00N 34°14' E 132°32'0 0.0
2018-Feb-10 22:30N 34°14' E 132°32'1 1.2
2018-Feb-10 22:00N 34°14' E 132°33'0 0.9
2018-Feb-10 21:29N 34°14' E 132°33'0 0.0
2018-Feb-10 20:59N 34°14' E 132°33'0 0.0
2018-Feb-10 20:29N 34°14' E 132°33'0 0.0
2018-Feb-10 19:56N 34°14' E 132°33'0 0.0
2018-Feb-10 19:26N 34°14' E 132°33'0 0.0
2018-Feb-10 18:59N 34°14' E 132°33'0 0.0
2018-Feb-10 18:29N 34°14' E 132°33'0 0.0
2018-Feb-10 17:59N 34°14' E 132°33'0 0.0
2018-Feb-10 17:29N 34°14' E 132°33'0 0.0
2018-Feb-10 16:47N 34°14' E 132°33'0 0.0
2018-Feb-10 16:20N 34°14' E 132°33'0 0.0
2018-Feb-10 15:59N 34°14' E 132°33'0 0.0
2018-Feb-10 15:17N 34°14' E 132°33'0 0.0
2018-Feb-10 14:59N 34°14' E 132°33'0 0.0
2018-Feb-10 14:23N 34°14' E 132°33'0 0.0
2018-Feb-10 13:53N 34°14' E 132°33'0 0.0
2018-Feb-10 13:23N 34°14' E 132°33'  
Track history (hours):
 
Tides and Currents Weather Stations Pressure Air Temp Water Temp Dewpoint Dewpoint Depression Visibility Wind Speed Wind Dir Waves Ship Positions

Shinseimaru

Last reported at 2018-Feb-20 13:06 UTC. Time now 2018-Feb-20 13:42 UTC.
Position N 34°27' E 134°29'.

Length 84 m.

Type: Ship. MMSI: 431301705.

Date/timePositionNaut miles runAvg speedWind from/ knotsBaromVisibWave heightAir tempDewpointWater temp
2018-Feb-20 13:06N 34°27' E 134°29'112.8
2018-Feb-20 13:00N 34°28' E 134°31'612.6
2018-Feb-20 12:30N 34°30' E 134°38'612.7
2018-Feb-20 12:00N 34°33' E 134°45'712.7
2018-Feb-20 11:28N 34°35' E 134°52'612.5
2018-Feb-20 11:00N 34°38' E 134°59'510.9
2018-Feb-20 10:30N 34°36' E 135°05'612.4
2018-Feb-20 10:01N 34°36' E 135°13'611.9
2018-Feb-20 09:31N 34°36' E 135°20'610.9
2018-Feb-20 09:00N 34°35' E 135°26'1 2.1
2018-Feb-20 08:26N 34°34' E 135°27'0 0.0
2018-Feb-20 07:59N 34°34' E 135°27'0 0.0
2018-Feb-20 07:29N 34°34' E 135°27'0 0.0
2018-Feb-20 06:59N 34°34' E 135°27'0 0.0
2018-Feb-20 06:29N 34°34' E 135°27'0 0.0
2018-Feb-20 05:59N 34°34' E 135°27'0 0.0
2018-Feb-20 05:29N 34°34' E 135°27'0 0.0
2018-Feb-20 04:59N 34°34' E 135°27'0 0.0
2018-Feb-20 04:29N 34°34' E 135°27'0 0.0
2018-Feb-20 03:59N 34°34' E 135°27'0 0.0
2018-Feb-20 03:29N 34°34' E 135°27'0 0.0
2018-Feb-20 02:59N 34°34' E 135°27'0 0.0
2018-Feb-20 02:29N 34°34' E 135°27'0 0.0
2018-Feb-20 01:59N 34°34' E 135°27'0 0.0
2018-Feb-20 01:29N 34°34' E 135°27'0 0.0
2018-Feb-20 00:59N 34°34' E 135°27'0 0.0
2018-Feb-20 00:29N 34°34' E 135°27'0 0.0
2018-Feb-19 23:59N 34°34' E 135°27'0 0.0
2018-Feb-19 23:29N 34°34' E 135°27'0 0.0
2018-Feb-19 22:59N 34°34' E 135°27'1 1.3
2018-Feb-19 22:28N 34°35' E 135°27'0 0.6
2018-Feb-19 22:00N 34°35' E 135°27'5 9.2
2018-Feb-19 21:30N 34°36' E 135°21'611.3
2018-Feb-19 21:00N 34°35' E 135°15'612.1
2018-Feb-19 20:30N 34°35' E 135°07'714.4
2018-Feb-19 20:00N 34°37' E 134°59'714.6
2018-Feb-19 19:30N 34°33' E 134°51'712.9
2018-Feb-19 18:59N 34°31' E 134°44'612.4
2018-Feb-19 18:30N 34°29' E 134°37'9911.1
2018-Feb-19 09:38N 34°05' E 132°41'211.3
2018-Feb-19 09:29N 34°04' E 132°39'9 5.8
2018-Feb-19 08:01N 34°08' E 132°30'112.1
2018-Feb-19 07:57N 34°09' E 132°30'4 8.2
2018-Feb-19 07:29N 34°13' E 132°31'1 2.8
2018-Feb-19 06:58N 34°14' E 132°32'0 0.0
2018-Feb-19 06:25N 34°14' E 132°32'0 0.0
2018-Feb-19 05:58N 34°14' E 132°32'0 0.0
2018-Feb-19 05:29N 34°14' E 132°32'0 0.0
2018-Feb-19 04:58N 34°14' E 132°32'0 0.0
2018-Feb-19 04:29N 34°14' E 132°32'0 0.0
2018-Feb-19 03:58N 34°14' E 132°32'0 0.0
2018-Feb-19 03:22N 34°14' E 132°32'0 0.0
2018-Feb-19 02:58N 34°14' E 132°32'0 0.0
2018-Feb-19 02:26N 34°14' E 132°32'0 0.0
2018-Feb-19 01:59N 34°14' E 132°32'0 0.0
2018-Feb-19 01:22N 34°14' E 132°32'0 0.0
2018-Feb-19 00:58N 34°14' E 132°32'0 0.0
2018-Feb-19 00:28N 34°14' E 132°32'0 0.0
2018-Feb-18 23:58N 34°14' E 132°32'0 0.0
2018-Feb-18 23:28N 34°14' E 132°32'3 6.7
2018-Feb-18 23:00N 34°11' E 132°30'9910.5
2018-Feb-18 13:35N 34°27' E 134°28'112.4
2018-Feb-18 13:28N 34°28' E 134°29'612.9
2018-Feb-18 13:00N 34°30' E 134°36'613.1
2018-Feb-18 12:30N 34°33' E 134°43'713.8
2018-Feb-18 12:00N 34°35' E 134°51'714.2
2018-Feb-18 11:30N 34°38' E 134°59'612.9
2018-Feb-18 11:01N 34°36' E 135°07'612.2
2018-Feb-18 10:30N 34°36' E 135°14'612.1
2018-Feb-18 10:00N 34°36' E 135°22'5 9.6
2018-Feb-18 09:30N 34°34' E 135°27'0 0.7
2018-Feb-18 09:00N 34°34' E 135°27'0 0.0
2018-Feb-18 08:30N 34°34' E 135°27'0 0.0
2018-Feb-18 08:00N 34°34' E 135°27'0 0.0
2018-Feb-18 07:30N 34°34' E 135°27'0 0.0
2018-Feb-18 07:00N 34°34' E 135°27'0 0.0
2018-Feb-18 06:30N 34°34' E 135°27'0 0.0
2018-Feb-18 06:00N 34°34' E 135°27'0 0.0
2018-Feb-18 05:30N 34°34' E 135°27'0 0.0
2018-Feb-18 05:00N 34°34' E 135°27'0 0.0
2018-Feb-18 04:30N 34°34' E 135°27'0 0.0
2018-Feb-18 03:57N 34°34' E 135°27'0 0.0
2018-Feb-18 03:30N 34°34' E 135°27'2 4.7
2018-Feb-18 03:00N 34°36' E 135°25'510.5
2018-Feb-18 02:30N 34°36' E 135°19'510.9
2018-Feb-18 02:00N 34°35' E 135°12'510.9
2018-Feb-18 01:30N 34°35' E 135°05'4 8.0
2018-Feb-18 01:00N 34°37' E 135°01'4 7.9
2018-Feb-18 00:29N 34°36' E 134°56'4 7.8
2018-Feb-17 23:59N 34°34' E 134°52'4 9.0
2018-Feb-17 23:30N 34°32' E 134°47'510.1
2018-Feb-17 23:00N 34°30' E 134°42'510.5
2018-Feb-17 22:30N 34°29' E 134°35'9810.9
2018-Feb-17 13:33N 34°05' E 132°40'111.6
2018-Feb-17 13:30N 34°05' E 132°40'9 5.6
2018-Feb-17 11:55N 34°08' E 132°30'410.5
2018-Feb-17 11:30N 34°13' E 132°31'2 3.0
2018-Feb-17 10:59N 34°14' E 132°32'0 0.0
2018-Feb-17 10:26N 34°14' E 132°32'0 0.0
2018-Feb-17 09:59N 34°14' E 132°32'0 0.0
2018-Feb-17 09:29N 34°14' E 132°32'0 0.0
2018-Feb-17 08:59N 34°14' E 132°32'0 0.0
2018-Feb-17 08:29N 34°14' E 132°32'0 0.0
2018-Feb-17 07:59N 34°14' E 132°32'0 0.0
2018-Feb-17 07:29N 34°14' E 132°32'0 0.0
2018-Feb-17 06:59N 34°14' E 132°32'0 0.0
2018-Feb-17 06:29N 34°14' E 132°32'0 0.0
2018-Feb-17 05:59N 34°14' E 132°32'0 0.0
2018-Feb-17 05:29N 34°14' E 132°32'0 0.0
2018-Feb-17 04:56N 34°14' E 132°32'0 0.0
2018-Feb-17 04:29N 34°14' E 132°32'0 0.0
2018-Feb-17 03:59N 34°14' E 132°32'0 0.0
2018-Feb-17 03:26N 34°14' E 132°32'0 0.0
2018-Feb-17 02:59N 34°14' E 132°32'0 0.0
2018-Feb-17 02:29N 34°14' E 132°32'0 0.0
2018-Feb-17 01:59N 34°14' E 132°32'0 0.0
2018-Feb-17 01:29N 34°14' E 132°32'0 0.0
2018-Feb-17 00:56N 34°14' E 132°32'0 0.0
2018-Feb-17 00:26N 34°14' E 132°32'2 4.5
2018-Feb-17 00:00N 34°12' E 132°31'10 6.0
2018-Feb-16 22:25N 34°04' E 132°36'9510.9
2018-Feb-16 13:40N 34°27' E 134°27'212.0
2018-Feb-16 13:29N 34°28' E 134°30'612.4
2018-Feb-16 13:00N 34°30' E 134°37'612.6
2018-Feb-16 12:30N 34°33' E 134°44'713.7
2018-Feb-16 12:00N 34°35' E 134°51'714.5
2018-Feb-16 11:30N 34°38' E 134°60'713.6
2018-Feb-16 11:00N 34°36' E 135°08'612.6
2018-Feb-16 10:30N 34°36' E 135°15'612.1
2018-Feb-16 10:00N 34°36' E 135°23'4 8.1
2018-Feb-16 09:30N 34°34' E 135°27'0 0.0
2018-Feb-16 09:00N 34°34' E 135°27'0 0.0
2018-Feb-16 08:30N 34°34' E 135°27'0 0.0
2018-Feb-16 08:00N 34°34' E 135°27'0 0.0
2018-Feb-16 07:30N 34°34' E 135°27'0 0.0
2018-Feb-16 07:00N 34°34' E 135°27'0 0.0
2018-Feb-16 06:30N 34°34' E 135°27'0 0.0
2018-Feb-16 06:00N 34°34' E 135°27'0 0.0
2018-Feb-16 05:30N 34°34' E 135°27'0 0.0
2018-Feb-16 04:54N 34°34' E 135°27'0 0.0
2018-Feb-16 04:30N 34°34' E 135°27'0 0.0
2018-Feb-16 04:00N 34°34' E 135°27'0 0.0
2018-Feb-16 03:30N 34°34' E 135°27'0 0.0
2018-Feb-16 03:00N 34°34' E 135°27'0 0.0
2018-Feb-16 02:30N 34°34' E 135°27'0 0.0
2018-Feb-16 02:00N 34°34' E 135°27'1 2.5
2018-Feb-16 01:30N 34°35' E 135°26'2 5.0
2018-Feb-16 01:00N 34°35' E 135°23'0 0.1
2018-Feb-16 00:28N 34°35' E 135°23'0 0.1
2018-Feb-15 23:58N 34°35' E 135°23'0 0.0
2018-Feb-15 23:28N 34°35' E 135°23'0 0.0
2018-Feb-15 22:58N 34°35' E 135°23'0 0.1
2018-Feb-15 22:28N 34°35' E 135°23'0 0.0
2018-Feb-15 21:58N 34°35' E 135°23'0 0.0
2018-Feb-15 21:27N 34°35' E 135°23'3 5.9
2018-Feb-15 21:00N 34°35' E 135°20'611.6
2018-Feb-15 20:30N 34°35' E 135°13'612.4
2018-Feb-15 20:00N 34°35' E 135°06'612.9
2018-Feb-15 19:30N 34°37' E 134°58'713.7
2018-Feb-15 19:00N 34°33' E 134°51'612.7
2018-Feb-15 18:30N 34°31' E 134°43'612.2
2018-Feb-15 18:00N 34°29' E 134°37'9811.9
2018-Feb-15 09:44N 34°06' E 132°41'312.4
2018-Feb-15 09:28N 34°04' E 132°37'8 5.6
2018-Feb-15 08:06N 34°08' E 132°30'1 9.9
2018-Feb-15 08:00N 34°10' E 132°29'5 9.6
2018-Feb-15 07:30N 34°14' E 132°32'0 0.7
2018-Feb-15 07:00N 34°14' E 132°32'0 0.0
2018-Feb-15 06:24N 34°14' E 132°32'0 0.0
2018-Feb-15 06:00N 34°14' E 132°32'0 0.0
2018-Feb-15 05:30N 34°14' E 132°32'0 0.0
2018-Feb-15 04:57N 34°14' E 132°32'0 0.0
2018-Feb-15 04:30N 34°14' E 132°32'0 0.0
2018-Feb-15 04:00N 34°14' E 132°32'0 0.0
2018-Feb-15 03:30N 34°14' E 132°32'0 0.0
2018-Feb-15 03:00N 34°14' E 132°32'0 0.0
2018-Feb-15 02:30N 34°14' E 132°32'0 0.0
2018-Feb-15 01:57N 34°14' E 132°32'0 0.0
2018-Feb-15 01:30N 34°14' E 132°32'0 0.0
2018-Feb-15 01:00N 34°14' E 132°32'0 0.0
2018-Feb-15 00:27N 34°14' E 132°32'0 0.0
2018-Feb-15 00:00N 34°14' E 132°32'0 0.0
2018-Feb-14 23:30N 34°14' E 132°32'0 0.0
2018-Feb-14 23:00N 34°14' E 132°32'0 0.0
2018-Feb-14 22:30N 34°14' E 132°32'0 0.0
2018-Feb-14 22:00N 34°14' E 132°32'0 0.0
2018-Feb-14 21:30N 34°14' E 132°32'0 0.6
2018-Feb-14 21:00N 34°14' E 132°32'611.0
2018-Feb-14 20:30N 34°09' E 132°30'7 6.5
2018-Feb-14 19:23N 34°03' E 132°35'9611.7
2018-Feb-14 11:11N 34°27' E 134°28'212.6
2018-Feb-14 11:00N 34°28' E 134°30'612.6
2018-Feb-14 10:30N 34°31' E 134°37'612.6
2018-Feb-14 10:00N 34°33' E 134°44'713.0
2018-Feb-14 09:30N 34°35' E 134°52'613.0
2018-Feb-14 09:00N 34°38' E 134°59'612.5
2018-Feb-14 08:30N 34°36' E 135°06'612.1
2018-Feb-14 08:00N 34°37' E 135°14'611.7
2018-Feb-14 07:30N 34°37' E 135°21'510.5
2018-Feb-14 07:00N 34°35' E 135°27'1 1.5
2018-Feb-14 06:30N 34°34' E 135°27'0 0.0
2018-Feb-14 06:00N 34°34' E 135°27'0 0.0
2018-Feb-14 05:30N 34°34' E 135°27'0 0.0
2018-Feb-14 04:57N 34°34' E 135°27'0 0.0
2018-Feb-14 04:30N 34°34' E 135°27'0 0.0
2018-Feb-14 04:00N 34°34' E 135°27'0 0.0
2018-Feb-14 03:30N 34°34' E 135°27'0 0.0
2018-Feb-14 03:00N 34°34' E 135°27'0 0.0
2018-Feb-14 02:30N 34°34' E 135°27'1 1.6
2018-Feb-14 02:00N 34°35' E 135°27'5 9.8
2018-Feb-14 01:30N 34°36' E 135°21'611.7
2018-Feb-14 01:00N 34°36' E 135°14'611.7
2018-Feb-14 00:30N 34°35' E 135°07'5 9.6
2018-Feb-14 00:00N 34°37' E 135°01'5 9.8
2018-Feb-13 23:29N 34°35' E 134°55'4 9.2
2018-Feb-13 23:00N 34°34' E 134°50'510.3
2018-Feb-13 22:30N 34°31' E 134°45'611.1
2018-Feb-13 21:59N 34°29' E 134°38'10011.1
2018-Feb-13 12:58N 34°05' E 132°41'1210.7
2018-Feb-13 11:52N 34°05' E 132°27'410.2
2018-Feb-13 11:26N 34°09' E 132°30'510.9
2018-Feb-13 11:00N 34°13' E 132°31'1 2.0
2018-Feb-13 10:28N 34°14' E 132°32'0 0.0
2018-Feb-13 09:58N 34°14' E 132°32'0 0.0
2018-Feb-13 09:28N 34°14' E 132°32'0 0.0
2018-Feb-13 08:58N 34°14' E 132°32'0 0.0
2018-Feb-13 08:28N 34°14' E 132°32'0 0.0
2018-Feb-13 07:58N 34°14' E 132°32'0 0.0
2018-Feb-13 07:28N 34°14' E 132°32'0 0.0
2018-Feb-13 06:58N 34°14' E 132°32'0 0.0
2018-Feb-13 06:28N 34°14' E 132°32'0 0.0
2018-Feb-13 05:58N 34°14' E 132°32'0 0.0
2018-Feb-13 05:19N 34°14' E 132°32'0 0.0
2018-Feb-13 04:58N 34°14' E 132°32'0 0.0
2018-Feb-13 04:28N 34°14' E 132°32'0 0.0
2018-Feb-13 03:58N 34°14' E 132°32'0 0.0
2018-Feb-13 03:28N 34°14' E 132°32'0 0.2
2018-Feb-13 03:00N 34°14' E 132°32'5 9.6
2018-Feb-13 02:27N 34°09' E 132°30'100 9.7
2018-Feb-12 16:10N 34°27' E 134°29'212.1
2018-Feb-12 16:00N 34°28' E 134°31'911.9
2018-Feb-12 15:16N 34°31' E 134°41'311.6
2018-Feb-12 15:00N 34°33' E 134°44'611.2
2018-Feb-12 14:30N 34°35' E 134°51'510.5
2018-Feb-12 14:00N 34°37' E 134°56'5 9.8
2018-Feb-12 13:30N 34°37' E 135°02'511.0
2018-Feb-12 13:00N 34°36' E 135°09'612.0
2018-Feb-12 12:28N 34°36' E 135°17'612.1
2018-Feb-12 12:00N 34°36' E 135°24'4 6.9
2018-Feb-12 11:29N 34°34' E 135°27'0 0.0
2018-Feb-12 10:59N 34°34' E 135°27'0 0.0
2018-Feb-12 10:29N 34°34' E 135°27'0 0.0
2018-Feb-12 09:59N 34°34' E 135°27'0 0.0
2018-Feb-12 09:26N 34°34' E 135°27'0 0.0
2018-Feb-12 08:59N 34°34' E 135°27'0 0.0
2018-Feb-12 08:29N 34°34' E 135°27'0 0.0
2018-Feb-12 07:59N 34°34' E 135°27'0 0.0
2018-Feb-12 07:29N 34°34' E 135°27'0 0.0
2018-Feb-12 06:59N 34°34' E 135°27'0 0.0
2018-Feb-12 06:29N 34°34' E 135°27'0 0.0
2018-Feb-12 05:59N 34°34' E 135°27'0 0.0
2018-Feb-12 05:29N 34°34' E 135°27'0 0.1
2018-Feb-12 04:57N 34°34' E 135°27'2 3.4
2018-Feb-12 04:30N 34°35' E 135°26'3 4.7
2018-Feb-12 03:58N 34°36' E 135°23'0 0.0
2018-Feb-12 03:28N 34°36' E 135°23'0 0.0
2018-Feb-12 02:58N 34°36' E 135°23'0 0.0
2018-Feb-12 02:28N 34°36' E 135°23'0 0.0
2018-Feb-12 01:58N 34°36' E 135°23'0 0.0
2018-Feb-12 01:28N 34°36' E 135°23'0 0.0
2018-Feb-12 00:58N 34°36' E 135°23'0 0.0
2018-Feb-12 00:28N 34°36' E 135°23'0 0.0
2018-Feb-11 23:58N 34°36' E 135°23'0 0.0
2018-Feb-11 23:28N 34°36' E 135°23'0 0.0
2018-Feb-11 22:58N 34°36' E 135°23'0 0.0
2018-Feb-11 22:28N 34°36' E 135°23'2 3.4
2018-Feb-11 22:00N 34°36' E 135°21'611.5
2018-Feb-11 21:30N 34°35' E 135°14'611.5
2018-Feb-11 21:00N 34°35' E 135°07'5 9.3
2018-Feb-11 20:30N 34°36' E 135°02'4 8.0
2018-Feb-11 20:00N 34°36' E 134°57'510.1
2018-Feb-11 19:30N 34°34' E 134°51'510.9
2018-Feb-11 19:00N 34°32' E 134°45'611.3
2018-Feb-11 18:30N 34°30' E 134°39'611.5
2018-Feb-11 18:00N 34°28' E 134°32'9411.3
2018-Feb-11 09:40N 34°06' E 132°41'212.0
2018-Feb-11 09:31N 34°05' E 132°39'8 5.5
2018-Feb-11 07:58N 34°09' E 132°30'510.0
2018-Feb-11 07:30N 34°13' E 132°31'1 2.0
2018-Feb-11 06:57N 34°14' E 132°32'0 0.0
2018-Feb-11 06:30N 34°14' E 132°32'0 0.0
2018-Feb-11 05:54N 34°14' E 132°32'0 0.0
2018-Feb-11 05:30N 34°14' E 132°32'0 0.0
2018-Feb-11 04:57N 34°14' E 132°32'0 0.0
2018-Feb-11 04:30N 34°14' E 132°32'0 0.0
2018-Feb-11 03:54N 34°14' E 132°32'0 0.0
2018-Feb-11 02:57N 34°14' E 132°32'0 0.0
2018-Feb-11 02:27N 34°14' E 132°32'0 0.0
2018-Feb-11 02:00N 34°14' E 132°32'0 0.0
2018-Feb-11 01:30N 34°14' E 132°32'0 0.0
2018-Feb-11 00:57N 34°14' E 132°32'0 0.0
2018-Feb-11 00:30N 34°14' E 132°32'0 0.0
2018-Feb-10 23:57N 34°14' E 132°32'0 0.0
2018-Feb-10 23:30N 34°14' E 132°32'0 0.0
2018-Feb-10 23:00N 34°14' E 132°32'0 0.0
2018-Feb-10 22:30N 34°14' E 132°32'1 1.2
2018-Feb-10 22:00N 34°14' E 132°33'0 0.9
2018-Feb-10 21:29N 34°14' E 132°33'0 0.0
2018-Feb-10 20:59N 34°14' E 132°33'0 0.0
2018-Feb-10 20:29N 34°14' E 132°33'0 0.0
2018-Feb-10 19:56N 34°14' E 132°33'0 0.0
2018-Feb-10 19:26N 34°14' E 132°33'0 0.0
2018-Feb-10 18:59N 34°14' E 132°33'0 0.0
2018-Feb-10 18:29N 34°14' E 132°33'0 0.0
2018-Feb-10 17:59N 34°14' E 132°33'0 0.0
2018-Feb-10 17:29N 34°14' E 132°33'0 0.0
2018-Feb-10 16:47N 34°14' E 132°33'0 0.0
2018-Feb-10 16:20N 34°14' E 132°33'0 0.0
2018-Feb-10 15:59N 34°14' E 132°33'0 0.0
2018-Feb-10 15:17N 34°14' E 132°33'0 0.0
2018-Feb-10 14:59N 34°14' E 132°33'0 0.0
2018-Feb-10 14:23N 34°14' E 132°33'0 0.0
2018-Feb-10 13:53N 34°14' E 132°33'0 0.0
2018-Feb-10 13:23N 34°14' E 132°33'  

Dump ship's entire track history